Time;durP1;ratioP1;P1;durP2;ratioP2;P2;SDS_P1;SDS_P2;PMS_P1;PMS_P2;Temp;Humidity;BMP_temperature;BMP_pressure;BME280_temperature;BME280_humidity;BME280_pressure;Samples;Min_cycle;Max_cycle;Signal;HPM_P1;HPM_P2
2022/05/20 10:22:10;;;;;;;7.23;1.97;;;;;;;31.27;28.80;96873.94;2074647;28;20580;-59
2022/05/20 10:23:27;;;;;;;7.37;2.20;;;;;;;31.32;28.27;96871.47;2078585;28;20426;-60
2022/05/20 10:25:00;;;;;;;4.73;1.93;;;;;;;31.19;28.09;96866.81;2075394;28;20441;-60
2022/05/20 10:26:31;;;;;;;8.53;2.60;;;;;;;31.22;28.47;96865.59;2073792;28;20435;-60
2022/05/20 10:27:40;;;;;;;5.43;2.57;;;;;;;30.92;28.45;96863.03;2060664;28;20477;-60
2022/05/20 10:33:23;;;;;;;5.27;3.07;;;;;;;30.74;29.47;96855.34;2063946;28;20436;-60
2022/05/20 10:34:26;;;;;;;10.97;5.13;;;;;;;31.28;29.52;96856.72;2062295;28;20939;-59
2022/05/20 10:35:53;;;;;;;13.03;3.40;;;;;;;31.82;30.14;96857.13;2063685;28;20924;-59
2022/05/20 10:37:05;;;;;;;7.03;2.37;;;;;;;32.19;28.85;96849.69;2061383;28;20473;-59
2022/05/20 10:38:43;;;;;;;4.50;1.93;;;;;;;31.71;27.47;96839.63;2076774;28;20841;-60
2022/05/20 10:39:55;;;;;;;9.07;2.93;;;;;;;32.22;27.84;96842.00;2067782;28;21001;-59
2022/05/20 10:41:11;;;;;;;4.90;2.13;;;;;;;32.42;27.56;96845.81;2066722;28;20424;-60
2022/05/20 10:42:47;;;;;;;7.17;3.00;;;;;;;32.15;27.06;96845.66;2068433;28;20415;-59
2022/05/20 10:48:37;;;;;;;4.33;2.43;;;;;;;31.46;28.41;96848.16;2073247;28;20426;-59
2022/05/20 10:49:55;;;;;;;21.97;3.20;;;;;;;31.77;27.98;96840.69;2064820;28;20427;-59
2022/05/20 10:51:15;;;;;;;6.73;1.77;;;;;;;31.50;28.42;96846.72;2066120;28;20427;-58
2022/05/20 10:52:36;;;;;;;8.83;3.13;;;;;;;31.74;28.03;96841.94;2064161;28;20444;-59
2022/05/20 10:53:50;;;;;;;8.13;2.30;;;;;;;32.21;26.97;96834.09;2067604;28;20440;-59
2022/05/20 10:55:39;;;;;;;6.97;2.43;;;;;;;31.93;27.30;96802.59;2063180;28;20432;-59
2022/05/20 10:57:24;;;;;;;6.73;2.47;;;;;;;31.55;27.29;96827.25;2061237;28;20473;-59
2022/05/20 10:58:34;;;;;;;3.47;2.00;;;;;;;31.78;27.85;96823.47;2056601;28;20904;-59
2022/05/20 11:00:07;;;;;;;9.53;2.57;;;;;;;31.50;27.01;96808.13;2058712;28;20464;-59
2022/05/20 11:01:31;;;;;;;4.13;2.53;;;;;;;31.75;27.75;96817.44;2055952;28;20792;-58
2022/05/20 11:03:05;;;;;;;6.87;2.57;;;;;;;32.71;26.88;96814.94;2067973;28;20541;-59
2022/05/20 11:04:41;;;;;;;9.13;2.60;;;;;;;33.09;26.36;96824.34;2062566;28;20496;-59
2022/05/20 11:06:32;;;;;;;10.47;2.53;;;;;;;32.79;26.47;96814.75;2065287;28;20463;-59
2022/05/20 11:07:47;;;;;;;5.00;2.20;;;;;;;33.12;26.14;96803.13;2045296;28;20472;-60
2022/05/20 11:08:49;;;;;;;9.90;2.67;;;;;;;32.28;26.23;96793.59;2046651;28;20444;-59
2022/05/20 11:10:32;;;;;;;5.40;2.30;;;;;;;31.96;27.15;96777.06;2074766;28;20468;-60
2022/05/20 11:11:50;;;;;;;6.27;2.20;;;;;;;31.90;27.75;96774.13;2071755;28;20797;-59
2022/05/20 11:13:02;;;;;;;5.57;2.40;;;;;;;31.97;28.40;96776.84;2074898;28;20445;-60
2022/05/20 11:14:34;;;;;;;9.03;3.40;;;;;;;32.43;28.10;96775.38;2070675;28;20426;-59
2022/05/20 11:16:03;;;;;;;9.67;6.07;;;;;;;32.48;26.71;96772.91;2068360;28;20439;-59
2022/05/20 11:17:16;;;;;;;13.63;8.30;;;;;;;33.02;28.00;96773.78;2064923;28;20448;-60
2022/05/20 11:18:39;;;;;;;13.43;8.00;;;;;;;33.05;27.10;96773.41;2071629;28;20432;-61
2022/05/20 11:19:59;;;;;;;10.27;2.40;;;;;;;33.29;27.30;96760.28;2073450;28;20423;-60
2022/05/20 11:21:16;;;;;;;8.80;2.93;;;;;;;33.66;26.91;96759.78;2068552;28;20442;-59
2022/05/20 11:22:25;;;;;;;8.93;2.40;;;;;;;33.76;26.40;96751.22;2071553;28;20423;-61
2022/05/20 11:23:40;;;;;;;8.23;2.57;;;;;;;33.46;26.16;96749.00;2070649;28;20430;-60
2022/05/20 11:25:17;;;;;;;4.90;2.40;;;;;;;33.51;26.71;96738.41;2074629;28;20425;-61
2022/05/20 11:26:27;;;;;;;13.90;3.30;;;;;;;33.45;26.22;96723.03;2051185;28;20441;-61
2022/05/20 11:28:01;;;;;;;6.07;3.17;;;;;;;32.69;27.11;96725.09;2071446;28;20439;-62
2022/05/20 11:29:13;;;;;;;5.17;2.43;;;;;;;33.87;26.73;96717.28;2059914;28;20440;-61
2022/05/20 11:30:21;;;;;;;5.57;2.60;;;;;;;33.78;25.61;96713.94;2062194;28;20436;-61
2022/05/20 11:31:41;;;;;;;8.43;2.70;;;;;;;33.74;25.30;96715.41;2062422;28;20424;-60
2022/05/20 11:32:53;;;;;;;7.53;2.57;;;;;;;33.79;25.23;96708.31;2065923;28;20839;-62
2022/05/20 11:34:12;;;;;;;6.20;2.47;;;;;;;33.52;26.22;96703.00;2062337;28;20432;-62
2022/05/20 11:35:32;;;;;;;3.70;2.10;;;;;;;31.59;27.97;96704.41;2063561;28;20427;-61
2022/05/20 11:36:56;;;;;;;7.93;2.83;;;;;;;31.47;28.41;96692.53;2053152;28;20542;-62
2022/05/20 11:38:23;;;;;;;8.07;2.53;;;;;;;31.47;27.98;96696.06;2065031;28;20432;-61
2022/05/20 11:39:30;;;;;;;10.47;2.40;;;;;;;32.89;26.98;96681.88;2063896;28;20799;-61
2022/05/20 11:40:55;;;;;;;12.13;2.27;;;;;;;32.05;27.78;96684.06;2060936;28;20471;-61
2022/05/20 11:42:14;;;;;;;9.03;3.10;;;;;;;32.69;26.92;96684.56;2055399;28;20475;-60
2022/05/20 11:43:47;;;;;;;5.73;2.33;;;;;;;32.56;27.41;96691.63;2065887;28;20515;-59
2022/05/20 11:45:10;;;;;;;18.73;10.73;;;;;;;31.97;28.06;96692.34;2059428;28;20428;-60
2022/05/20 11:46:38;;;;;;;17.67;5.70;;;;;;;31.94;27.81;96698.97;2049740;28;20425;-62
2022/05/20 11:47:56;;;;;;;16.10;3.10;;;;;;;32.12;27.18;96698.38;2067226;28;20995;-61
2022/05/20 11:49:10;;;;;;;14.63;2.50;;;;;;;32.17;27.01;96700.50;2059721;28;20435;-61
2022/05/20 11:50:41;;;;;;;5.80;2.20;;;;;;;33.07;25.71;96688.53;2059705;28;20433;-59
2022/05/20 11:52:33;;;;;;;12.10;2.57;;;;;;;33.41;25.84;96690.13;2059727;28;20461;-59
2022/05/20 11:53:54;;;;;;;9.33;2.67;;;;;;;33.15;25.51;96677.47;2058852;28;20575;-60
2022/05/20 11:55:00;;;;;;;5.60;2.10;;;;;;;33.11;25.84;96679.75;2060239;28;20457;-60
2022/05/20 11:56:07;;;;;;;26.27;3.03;;;;;;;33.84;25.52;96669.81;2065894;28;20974;-59
2022/05/20 11:57:14;;;;;;;5.90;2.63;;;;;;;34.07;25.06;96666.56;2066552;28;20435;-60
2022/05/20 11:58:34;;;;;;;7.70;2.63;;;;;;;33.71;25.98;96667.94;2052976;28;21112;-59
2022/05/20 11:59:51;;;;;;;9.03;2.33;;;;;;;33.02;26.81;96673.75;2060017;28;20918;-59
2022/05/20 12:00:54;;;;;;;8.90;2.67;;;;;;;32.77;27.78;96678.16;2058947;28;20939;-59
2022/05/20 12:01:58;;;;;;;4.77;2.50;;;;;;;32.40;27.60;96673.13;2054615;28;20479;-60
2022/05/20 12:03:14;;;;;;;9.03;2.90;;;;;;;32.72;27.87;96660.66;2066654;28;20518;-60
2022/05/20 12:04:18;;;;;;;4.90;2.67;;;;;;;32.74;27.59;96659.66;2057750;28;20863;-60
2022/05/20 12:05:30;;;;;;;8.90;2.50;;;;;;;32.38;28.45;96661.72;2058441;28;20439;-59
2022/05/20 12:06:34;;;;;;;10.30;2.47;;;;;;;32.29;28.32;96652.13;2053796;28;20467;-59
2022/05/20 12:07:37;;;;;;;7.17;3.10;;;;;;;32.39;27.99;96661.50;2065654;28;20821;-60
2022/05/20 12:08:44;;;;;;;4.87;2.23;;;;;;;32.65;28.55;96659.81;2060696;28;20479;-60
2022/05/20 12:09:58;;;;;;;10.47;2.73;;;;;;;32.51;28.08;96642.78;2056399;28;20892;-60
2022/05/20 12:11:37;;;;;;;4.30;2.40;;;;;;;32.81;28.52;96642.41;2058159;28;20437;-60
2022/05/20 12:13:16;;;;;;;4.80;2.60;;;;;;;32.65;29.02;96645.50;2065610;28;20445;-60
2022/05/20 12:14:18;;;;;;;4.80;2.90;;;;;;;31.43;29.21;96649.75;2062746;28;20435;-59
2022/05/20 12:15:19;;;;;;;5.13;2.77;;;;;;;31.24;29.50;96645.13;2066496;28;20849;-59
2022/05/20 12:16:20;;;;;;;8.73;2.83;;;;;;;31.64;29.10;96642.59;2060374;28;20435;-60
2022/05/20 12:17:39;;;;;;;4.97;3.13;;;;;;;31.91;29.02;96634.59;2076087;28;20423;-60
2022/05/20 12:24:33;;;;;;;5.73;2.70;;;;;;;32.39;29.05;96628.22;2062284;28;20424;-61
2022/05/20 12:25:38;;;;;;;6.80;2.43;;;;;;;32.65;29.14;96618.47;2061201;28;20957;-60
2022/05/20 12:26:47;;;;;;;6.60;2.70;;;;;;;32.59;28.63;96620.13;2047024;28;20468;-61
2022/05/20 12:28:03;;;;;;;15.50;2.70;;;;;;;32.14;28.04;96617.16;2071389;28;20431;-60
2022/05/20 12:29:37;;;;;;;8.80;2.87;;;;;;;31.95;29.13;96625.06;2066229;28;20439;-60
2022/05/20 12:30:45;;;;;;;7.33;2.43;;;;;;;31.34;29.81;96615.91;2069122;28;20522;-61
2022/05/20 12:31:50;;;;;;;6.70;2.73;;;;;;;31.62;29.45;96609.56;2063366;28;20455;-60
2022/05/20 12:32:52;;;;;;;5.00;2.20;;;;;;;32.12;29.46;96614.69;2066143;28;20485;-60
2022/05/20 12:33:56;;;;;;;11.03;2.60;;;;;;;32.35;29.32;96610.78;2066680;28;20807;-60
2022/05/20 12:35:10;;;;;;;8.00;2.60;;;;;;;32.56;28.38;96612.44;2066238;28;20462;-60
2022/05/20 12:36:14;;;;;;;6.43;3.20;;;;;;;32.71;27.99;96609.53;2055003;28;20769;-60
2022/05/20 12:37:41;;;;;;;6.70;2.63;;;;;;;32.32;28.30;96595.81;2071832;28;20773;-59
2022/05/20 12:38:43;;;;;;;8.03;2.80;;;;;;;32.65;28.55;96594.16;2069560;28;20431;-60
2022/05/20 12:39:52;;;;;;;6.53;2.70;;;;;;;32.89;27.99;96592.69;2069271;28;20467;-60
2022/05/20 12:40:56;;;;;;;10.17;3.80;;;;;;;32.81;28.01;96591.03;2066848;28;20849;-61
2022/05/20 12:42:01;;;;;;;10.33;2.83;;;;;;;32.48;27.93;96593.72;2062821;28;21016;-60
2022/05/20 12:43:02;;;;;;;13.23;2.87;;;;;;;32.18;27.66;96589.59;2068129;28;20922;-60
2022/05/20 12:44:16;;;;;;;7.70;3.07;;;;;;;32.03;27.77;96591.63;2060380;28;20503;-60
2022/05/20 12:45:17;;;;;;;13.57;2.93;;;;;;;32.18;28.28;96584.19;2065694;28;20431;-60
2022/05/20 12:46:32;;;;;;;7.60;3.27;;;;;;;32.50;27.50;96583.56;2061136;28;20491;-60
2022/05/20 12:47:34;;;;;;;4.50;2.90;;;;;;;32.38;28.51;96577.97;2074686;28;20430;-60
2022/05/20 12:48:37;;;;;;;13.60;2.97;;;;;;;32.88;28.03;96574.78;2070364;28;20490;-60
2022/05/20 12:49:42;;;;;;;10.80;2.90;;;;;;;32.99;28.39;96576.84;2067686;28;20431;-60
2022/05/20 12:50:43;;;;;;;7.80;3.20;;;;;;;33.22;27.80;96570.09;2070272;28;21103;-60
2022/05/20 12:51:48;;;;;;;7.87;3.33;;;;;;;33.31;27.42;96576.97;2068930;28;20448;-60
2022/05/20 12:52:52;;;;;;;8.00;2.87;;;;;;;32.63;27.70;96570.00;2068672;28;20427;-60
2022/05/20 12:53:54;;;;;;;11.87;2.63;;;;;;;32.68;27.86;96577.50;2068141;28;20434;-60
2022/05/20 12:55:33;;;;;;;3.57;2.23;;;;;;;32.66;27.49;96569.63;2068246;28;20427;-60
2022/05/20 12:56:35;;;;;;;6.73;2.43;;;;;;;32.69;28.00;96565.66;2054506;28;20466;-61
2022/05/20 12:57:36;;;;;;;10.07;2.70;;;;;;;32.81;27.49;96558.59;2076486;28;20957;-61
2022/05/20 12:58:38;;;;;;;5.50;2.70;;;;;;;32.44;28.27;96546.56;2072493;28;20923;-61
2022/05/20 12:59:40;;;;;;;6.10;2.70;;;;;;;33.03;27.77;96550.22;2063539;28;20432;-61
2022/05/20 13:00:51;;;;;;;6.03;2.73;;;;;;;33.19;27.55;96549.72;2064969;28;21122;-61
2022/05/20 13:01:59;;;;;;;5.03;2.17;;;;;;;32.72;28.01;96557.97;2065912;28;20466;-61
2022/05/20 13:03:27;;;;;;;7.63;3.10;;;;;;;33.65;26.91;96545.16;2076552;28;20498;-61
2022/05/20 13:04:35;;;;;;;10.70;2.83;;;;;;;33.89;26.79;96550.00;2065949;28;20436;-61
2022/05/20 13:05:46;;;;;;;6.03;2.50;;;;;;;33.57;27.28;96542.69;2068152;28;20831;-61
2022/05/20 13:06:48;;;;;;;13.77;2.73;;;;;;;33.67;28.05;96534.94;2064823;28;21065;-61
2022/05/20 13:07:52;;;;;;;8.20;2.87;;;;;;;33.29;28.54;96535.75;2074604;28;20439;-61
2022/05/20 13:09:01;;;;;;;8.07;3.30;;;;;;;33.50;27.25;96528.38;2067770;28;20907;-61
2022/05/20 13:10:34;;;;;;;7.47;2.50;;;;;;;33.09;27.94;96525.03;2067041;28;20432;-61
2022/05/20 13:11:49;;;;;;;18.17;2.70;;;;;;;32.95;26.96;96521.53;2064778;28;20525;-61
2022/05/20 13:13:05;;;;;;;5.50;2.33;;;;;;;33.19;27.69;96530.81;2065611;28;20431;-61
2022/05/20 13:14:11;;;;;;;7.20;2.70;;;;;;;33.60;26.71;96523.31;2065681;28;20435;-61
2022/05/20 13:15:15;;;;;;;6.60;1.97;;;;;;;33.05;26.74;96521.06;2066667;28;20432;-60
2022/05/20 13:16:20;;;;;;;8.63;2.77;;;;;;;33.14;26.90;96517.09;2060972;28;20434;-59
2022/05/20 13:17:23;;;;;;;11.13;2.43;;;;;;;33.28;26.06;96507.06;2069521;28;21189;-59
2022/05/20 13:18:29;;;;;;;5.20;2.87;;;;;;;33.05;27.36;96513.81;2070112;28;20430;-60
2022/05/20 13:19:48;;;;;;;8.53;3.43;;;;;;;32.64;26.85;96512.22;2064167;28;20423;-60
2022/05/20 13:20:53;;;;;;;7.00;2.80;;;;;;;32.39;27.85;96503.97;2064639;28;20927;-61
2022/05/20 13:22:02;;;;;;;7.43;3.37;;;;;;;32.16;27.43;96499.81;2050292;28;20492;-61
2022/05/20 13:23:06;;;;;;;13.50;3.00;;;;;;;32.00;27.50;96508.34;2058806;28;20949;-58
2022/05/20 13:24:16;;;;;;;7.83;2.73;;;;;;;32.04;26.98;96512.31;2065211;28;20431;-57
2022/05/20 13:25:20;;;;;;;4.77;2.97;;;;;;;31.68;27.72;96491.91;2065279;28;20435;-59
2022/05/20 13:26:28;;;;;;;7.33;2.43;;;;;;;31.78;27.25;96503.13;2058137;28;20961;-58
2022/05/20 13:27:30;;;;;;;4.77;2.50;;;;;;;31.88;27.20;96508.13;2073330;28;21074;-58
2022/05/20 13:28:37;;;;;;;13.33;2.53;;;;;;;31.79;27.83;96496.72;2070264;28;20928;-58
2022/05/20 13:29:40;;;;;;;9.10;2.20;;;;;;;31.58;28.52;96495.00;2064362;28;20522;-58
2022/05/20 13:30:42;;;;;;;5.37;2.27;;;;;;;31.52;27.97;96501.22;2067813;28;20511;-58
2022/05/20 13:31:44;;;;;;;8.63;3.60;;;;;;;31.38;27.83;96492.28;2069388;28;21001;-58
2022/05/20 13:32:46;;;;;;;10.70;2.40;;;;;;;31.65;28.16;96509.34;2069692;28;20519;-58
2022/05/20 13:33:48;;;;;;;9.63;2.33;;;;;;;31.64;28.58;96494.19;2068471;28;20927;-58
2022/05/20 13:34:51;;;;;;;9.10;2.60;;;;;;;31.59;28.76;96497.50;2066913;28;20427;-59
2022/05/20 13:35:54;;;;;;;5.63;2.70;;;;;;;31.53;28.09;96500.19;2066542;28;20789;-59
2022/05/20 13:36:57;;;;;;;13.10;3.10;;;;;;;31.18;28.25;96503.00;2063866;28;21157;-58
2022/05/20 13:38:02;;;;;;;4.20;2.00;;;;;;;31.17;27.69;96493.25;2072992;28;20431;-58
2022/05/20 13:39:04;;;;;;;7.80;2.43;;;;;;;31.06;27.67;96497.38;2068281;28;20419;-58
2022/05/20 13:40:24;;;;;;;7.00;2.80;;;;;;;30.93;27.76;96495.41;2076129;28;20945;-58
2022/05/20 13:41:30;;;;;;;6.70;2.10;;;;;;;31.03;27.99;96495.88;2060377;28;20527;-58
2022/05/20 13:42:33;;;;;;;7.23;3.70;;;;;;;30.94;28.54;96500.63;2074086;28;20433;-58
2022/05/20 13:43:37;;;;;;;10.13;4.93;;;;;;;31.22;27.31;96509.66;2067405;28;20428;-60
2022/05/20 13:44:41;;;;;;;10.83;4.43;;;;;;;31.58;27.63;96500.41;2069070;28;20435;-59
2022/05/20 13:50:04;;;;;;;11.90;2.63;;;;;;;31.12;28.08;96493.84;2069028;28;20443;-60
2022/05/20 13:51:08;;;;;;;9.07;2.97;;;;;;;30.94;28.55;96489.84;2066679;28;20453;-60
2022/05/20 13:52:12;;;;;;;9.27;2.20;;;;;;;30.99;28.39;96494.59;2067308;28;20922;-60
2022/05/20 13:53:13;;;;;;;10.73;2.70;;;;;;;30.80;27.50;96485.41;2068625;28;20424;-61
2022/05/20 13:54:30;;;;;;;4.43;1.87;;;;;;;30.69;27.47;96494.91;2066507;28;20438;-61
2022/05/20 13:55:34;;;;;;;4.90;2.73;;;;;;;30.66;27.38;96487.22;2065718;28;20439;-61
2022/05/20 13:56:41;;;;;;;9.57;1.97;;;;;;;30.74;27.84;96491.59;2060595;28;20454;-61
2022/05/20 13:57:49;;;;;;;14.63;3.27;;;;;;;30.90;27.70;96495.81;2073573;28;20427;-61
2022/05/20 13:58:52;;;;;;;12.37;2.50;;;;;;;30.91;28.04;96501.00;2069826;28;20435;-61
2022/05/20 13:59:57;;;;;;;6.10;2.27;;;;;;;30.75;27.86;96504.03;2066844;28;20428;-61
2022/05/20 14:01:04;;;;;;;15.50;2.40;;;;;;;30.78;31.35;96503.66;2067373;28;20485;-61
2022/05/20 14:02:08;;;;;;;14.63;2.80;;;;;;;30.55;33.91;96501.22;2056371;28;21120;-62
2022/05/20 14:03:28;;;;;;;9.73;3.33;;;;;;;30.71;34.14;96500.09;2058523;28;20469;-61
2022/05/20 14:04:50;;;;;;;17.13;4.07;;;;;;;30.70;34.01;96499.28;2060346;28;20428;-61
2022/05/20 14:05:56;;;;;;;15.03;3.00;;;;;;;30.88;34.22;96504.13;2055094;28;20437;-61
2022/05/20 14:07:01;;;;;;;6.37;3.00;;;;;;;30.62;34.04;96512.88;2051470;28;20460;-61
2022/05/20 14:08:03;;;;;;;10.83;3.67;;;;;;;30.57;34.48;96502.69;2065819;28;20440;-61
2022/05/20 14:09:05;;;;;;;14.93;4.63;;;;;;;30.41;34.83;96509.22;2056189;28;20440;-61
2022/05/20 14:10:26;;;;;;;41.00;4.13;;;;;;;30.61;34.92;96512.06;2057963;28;20431;-62
2022/05/20 14:11:29;;;;;;;18.23;3.67;;;;;;;30.38;35.48;96514.97;2055319;28;20468;-61
2022/05/20 14:12:32;;;;;;;14.27;3.53;;;;;;;29.88;35.92;96452.28;2057403;28;20432;-61
2022/05/20 14:13:40;;;;;;;15.03;3.37;;;;;;;30.57;35.75;96513.47;2057912;28;20455;-61
2022/05/20 14:14:47;;;;;;;5.77;2.97;;;;;;;30.51;35.89;96525.03;2059702;28;20428;-60
2022/05/20 14:15:55;;;;;;;9.33;3.10;;;;;;;30.25;35.84;96520.28;2058338;28;20421;-61
2022/05/20 14:17:01;;;;;;;22.80;3.30;;;;;;;30.33;36.19;96530.91;2054223;28;20542;-61
2022/05/20 14:18:05;;;;;;;8.47;3.47;;;;;;;30.42;35.55;96545.03;2065582;28;20419;-61
2022/05/20 14:19:42;;;;;;;28.27;3.37;;;;;;;30.09;35.79;96546.47;2054522;28;21020;-60
2022/05/20 14:20:48;;;;;;;10.97;2.47;;;;;;;29.60;36.39;96540.00;2057660;28;20441;-59
2022/05/20 14:21:51;;;;;;;16.30;3.53;;;;;;;29.69;36.05;96535.31;2055762;28;20510;-59
2022/05/20 14:54:01;;;;;;;16.10;3.80;;;;;;;29.39;35.82;96554.25;2082637;28;20573;-60
2022/05/20 14:57:24;;;;;;;12.87;7.10;;;;;;;29.57;36.02;96563.75;2080830;27;20570;-59
2022/05/20 14:58:33;;;;;;;13.90;5.17;;;;;;;29.00;37.54;96568.81;2079345;28;20430;-60
2022/05/20 14:59:35;;;;;;;14.60;4.17;;;;;;;28.58;38.97;96563.09;2070670;28;20834;-60
2022/05/20 15:01:56;;;;;;;16.53;3.63;;;;;;;28.56;40.11;96569.66;2075461;28;21117;-60
2022/05/20 15:04:47;;;;;;;15.93;4.22;;;;;;;28.19;40.59;96561.44;2084488;28;20550;-60
2022/05/20 15:05:53;;;;;;;24.85;3.25;;;;;;;28.55;40.13;96559.94;2078784;28;20569;-61
2022/05/20 15:07:00;;;;;;;8.73;3.63;;;;;;;28.54;40.43;96564.44;2078375;28;20592;-60
2022/05/20 15:08:09;;;;;;;13.60;3.03;;;;;;;28.26;41.02;96577.66;2077719;28;20688;-61
2022/05/20 15:09:35;;;;;;;7.47;3.08;;;;;;;28.05;41.09;96587.22;2078053;28;20205;-60
2022/05/20 15:10:38;;;;;;;18.25;4.30;;;;;;;27.42;42.68;96581.91;2078807;28;20201;-60
2022/05/20 15:11:39;;;;;;;13.27;3.00;;;;;;;27.44;42.88;96582.59;2073199;28;20636;-60
2022/05/20 16:10:49;;;;;;;18.50;3.47;;;;;;;26.73;44.54;96513.72;2083217;28;20562;-59
2022/05/20 16:11:50;;;;;;;9.40;3.40;;;;;;;26.93;43.99;96513.31;2071610;28;20216;-59
2022/05/20 16:12:52;;;;;;;7.13;3.47;;;;;;;27.15;43.19;96514.38;2082687;28;20188;-59
2022/05/20 16:13:54;;;;;;;8.93;2.78;;;;;;;27.45;42.74;96509.19;2069680;28;20211;-59
2022/05/20 16:14:55;;;;;;;7.07;3.20;;;;;;;27.53;42.73;96513.66;2067336;28;20205;-59
2022/05/20 16:15:56;;;;;;;13.02;3.00;;;;;;;27.48;42.72;96511.50;2066556;28;20683;-60
2022/05/20 16:16:58;;;;;;;7.28;2.70;;;;;;;27.20;42.90;96514.66;2071389;28;20302;-59
2022/05/20 16:17:59;;;;;;;12.52;3.35;;;;;;;27.21;42.70;96510.97;2083344;28;20606;-59
2022/05/20 16:19:02;;;;;;;11.25;3.15;;;;;;;27.11;42.92;96498.81;2067491;28;20550;-59
2022/05/20 16:20:04;;;;;;;9.73;3.10;;;;;;;27.13;43.22;96489.59;2067809;28;20669;-59
